createdAt,value
2023-12-11T00:01:49.884Z,-2.03
2023-12-11T00:04:19.085Z,-2.03
2023-12-11T00:06:47.457Z,-2.04
2023-12-11T00:09:15.846Z,-2.07
2023-12-11T00:11:44.206Z,-2.06
2023-12-11T00:14:13.755Z,-2.05
2023-12-11T00:16:41.885Z,-2.06
2023-12-11T00:19:13.280Z,-2.06
2023-12-11T00:21:41.987Z,-2.06
2023-12-11T00:24:10.255Z,-2.05
2023-12-11T00:26:38.626Z,-2.07
2023-12-11T00:29:07.616Z,-2.09
2023-12-11T00:31:35.700Z,-2.11
2023-12-11T00:34:04.202Z,-2.12
2023-12-11T00:36:32.301Z,-2.12
2023-12-11T00:39:00.925Z,-2.11
2023-12-11T00:41:29.163Z,-2.10
2023-12-11T00:43:57.192Z,-2.09
2023-12-11T00:46:28.089Z,-2.09
2023-12-11T00:48:56.314Z,-2.10
2023-12-11T00:51:24.587Z,-2.09
2023-12-11T00:53:52.696Z,-2.08
2023-12-11T00:56:20.965Z,-2.07
2023-12-11T00:58:49.009Z,-2.10
2023-12-11T01:01:17.226Z,-2.10
2023-12-11T01:03:45.873Z,-2.09
2023-12-11T01:06:14.028Z,-2.08
2023-12-11T01:08:42.380Z,-2.07
2023-12-11T01:11:10.524Z,-2.08
2023-12-11T01:13:39.341Z,-2.10
2023-12-11T01:16:07.927Z,-2.10
2023-12-11T01:18:36.357Z,-2.09
2023-12-11T01:21:04.992Z,-2.09
2023-12-11T01:23:33.286Z,-2.08
2023-12-11T01:26:01.398Z,-2.07
2023-12-11T01:28:29.668Z,-2.05
2023-12-11T01:30:57.845Z,-2.03
2023-12-11T01:33:26.068Z,-2.02
2023-12-11T01:35:54.402Z,-2.04
2023-12-11T01:38:22.652Z,-2.05
2023-12-11T01:40:50.907Z,-2.07
2023-12-11T01:43:20.035Z,-2.06
2023-12-11T01:45:59.105Z,-2.07
2023-12-11T01:48:27.347Z,-2.07
2023-12-11T01:50:55.908Z,-2.07
2023-12-11T01:53:24.331Z,-2.05
2023-12-11T01:55:52.511Z,-2.05
2023-12-11T01:58:20.588Z,-2.07
2023-12-11T02:00:48.881Z,-2.07
2023-12-11T02:03:17.101Z,-2.07
2023-12-11T02:05:45.600Z,-2.05
2023-12-11T02:08:14.472Z,-2.04
2023-12-11T02:10:42.692Z,-2.05
2023-12-11T02:13:11.059Z,-2.04
2023-12-11T02:15:43.198Z,-2.04
2023-12-11T02:18:12.150Z,-2.06
2023-12-11T02:20:40.500Z,-2.06
2023-12-11T02:23:10.293Z,-2.08
2023-12-11T02:25:38.319Z,-2.08
2023-12-11T02:28:06.512Z,-2.08
2023-12-11T02:30:36.125Z,-2.08
2023-12-11T02:33:04.364Z,-2.09
2023-12-11T02:35:33.028Z,-2.10
2023-12-11T02:38:03.588Z,-2.09
2023-12-11T02:40:31.672Z,-2.10
2023-12-11T02:42:59.730Z,-2.10
2023-12-11T02:45:27.844Z,-2.08
2023-12-11T02:48:04.033Z,-2.08
2023-12-11T02:50:32.742Z,-2.09
2023-12-11T02:53:01.319Z,-2.08
2023-12-11T02:55:29.519Z,-2.08
2023-12-11T02:58:01.559Z,-2.08
2023-12-11T03:00:30.501Z,-2.07
2023-12-11T03:02:58.754Z,-2.08
2023-12-11T03:05:26.989Z,-2.09
2023-12-11T03:07:55.156Z,-2.09
2023-12-11T03:10:23.835Z,-2.09
2023-12-11T03:12:52.075Z,-2.09
2023-12-11T03:15:20.524Z,-2.09
2023-12-11T03:17:48.939Z,-2.09
2023-12-11T03:20:18.217Z,-2.06
2023-12-11T03:22:46.567Z,-2.03
2023-12-11T03:25:14.687Z,-2.03
2023-12-11T03:27:42.779Z,-2.02
2023-12-11T03:30:11.076Z,-2.02
2023-12-11T03:32:39.270Z,-2.03
2023-12-11T03:35:07.637Z,-2.02
2023-12-11T03:37:35.794Z,-2.02
2023-12-11T03:40:05.033Z,-2.01
2023-12-11T03:42:33.347Z,-1.99
2023-12-11T03:45:01.430Z,-1.99
2023-12-11T03:47:29.882Z,-1.99
2023-12-11T03:49:58.263Z,-2.01
2023-12-11T03:52:26.433Z,-2.00
2023-12-11T03:54:54.532Z,-2.00
2023-12-11T03:57:22.632Z,-2.01
2023-12-11T03:59:50.962Z,-2.02
2023-12-11T04:02:19.433Z,-2.03
2023-12-11T04:04:47.740Z,-2.03
2023-12-11T04:07:15.942Z,-2.02
2023-12-11T04:09:44.869Z,-2.01
2023-12-11T04:12:13.126Z,-2.00
2023-12-11T04:14:41.367Z,-1.99
2023-12-11T04:17:09.581Z,-1.98
2023-12-11T04:19:37.717Z,-1.96
2023-12-11T04:22:06.028Z,-1.96
2023-12-11T04:24:34.242Z,-1.95
2023-12-11T04:27:02.337Z,-1.94
2023-12-11T04:29:30.537Z,-1.93
2023-12-11T04:31:58.704Z,-1.92
2023-12-11T04:34:27.015Z,-1.92
2023-12-11T04:36:55.423Z,-1.90
2023-12-11T04:39:23.850Z,-1.91
2023-12-11T04:41:51.968Z,-1.92
2023-12-11T04:44:20.099Z,-1.92
2023-12-11T04:46:48.529Z,-1.93
2023-12-11T04:49:16.816Z,-1.89
2023-12-11T04:51:44.897Z,-1.86
2023-12-11T04:54:13.108Z,-1.85
2023-12-11T04:56:41.701Z,-1.84
2023-12-11T04:59:09.781Z,-1.85
2023-12-11T05:01:37.879Z,-1.84
2023-12-11T05:04:06.023Z,-1.83
2023-12-11T05:06:34.252Z,-1.81
2023-12-11T05:09:02.417Z,-1.81
2023-12-11T05:11:30.566Z,-1.81
2023-12-11T05:13:58.655Z,-1.79
2023-12-11T05:16:27.868Z,-1.78
2023-12-11T05:18:56.353Z,-1.77
2023-12-11T05:21:24.512Z,-1.77
2023-12-11T05:23:53.606Z,-1.75
2023-12-11T05:26:21.704Z,-1.73
2023-12-11T05:28:49.987Z,-1.72
2023-12-11T05:31:18.193Z,-1.72
2023-12-11T05:33:46.654Z,-1.71
2023-12-11T05:36:15.241Z,-1.68
2023-12-11T05:38:43.357Z,-1.65
2023-12-11T05:41:11.430Z,-1.63
2023-12-11T05:43:39.613Z,-1.62
2023-12-11T05:46:07.826Z,-1.62
2023-12-11T05:48:36.321Z,-1.63
2023-12-11T05:51:04.896Z,-1.64
2023-12-11T05:53:33.103Z,-1.65
2023-12-11T05:56:01.367Z,-1.66
2023-12-11T05:58:29.407Z,-1.68
2023-12-11T06:00:57.738Z,-1.70
2023-12-11T06:03:25.813Z,-1.70
2023-12-11T06:05:59.486Z,-1.70
2023-12-11T06:08:27.812Z,-1.70
2023-12-11T06:10:55.854Z,-1.69
2023-12-11T06:13:24.076Z,-1.69
2023-12-11T06:15:53.131Z,-1.67
2023-12-11T06:18:21.316Z,-1.65
2023-12-11T06:20:49.576Z,-1.64
2023-12-11T06:23:17.778Z,-1.64
2023-12-11T06:25:46.038Z,-1.64
2023-12-11T06:28:14.266Z,-1.64
2023-12-11T06:30:42.516Z,-1.64
2023-12-11T06:33:10.879Z,-1.63
2023-12-11T06:35:39.127Z,-1.63
2023-12-11T06:38:07.415Z,-1.63
2023-12-11T06:40:35.681Z,-1.62
2023-12-11T06:43:04.025Z,-1.59
2023-12-11T06:45:35.455Z,-1.57
2023-12-11T06:48:05.548Z,-1.53
2023-12-11T06:50:34.688Z,-1.51
2023-12-11T06:53:02.907Z,-1.50
2023-12-11T06:55:31.030Z,-1.48
2023-12-11T06:57:59.228Z,-1.46
2023-12-11T07:00:28.245Z,-1.43
2023-12-11T07:02:56.770Z,-1.40
2023-12-11T07:05:26.331Z,-1.38
2023-12-11T07:07:54.862Z,-1.35
2023-12-11T07:10:24.325Z,-1.31
2023-12-11T07:12:52.535Z,-1.30
2023-12-11T07:15:21.247Z,-1.27
2023-12-11T07:17:49.531Z,-1.24
2023-12-11T07:20:17.978Z,-1.21
2023-12-11T07:22:47.057Z,-1.18
2023-12-11T07:25:15.385Z,-1.14
2023-12-11T07:27:44.103Z,-1.11
2023-12-11T07:30:13.001Z,-1.10
2023-12-11T07:32:41.333Z,-1.09
2023-12-11T07:35:13.056Z,-1.09
2023-12-11T07:37:43.179Z,-1.06
2023-12-11T07:40:11.778Z,-1.02
2023-12-11T07:42:39.965Z,-0.99
2023-12-11T07:45:08.275Z,-0.97
2023-12-11T07:47:36.748Z,-0.94
2023-12-11T07:50:05.957Z,-0.92
2023-12-11T07:52:34.434Z,-0.93
2023-12-11T07:55:02.520Z,-0.92
2023-12-11T07:57:30.986Z,-0.91
2023-12-11T07:59:59.317Z,-0.89
2023-12-11T08:02:30.505Z,-0.87
2023-12-11T08:04:58.899Z,-0.85
2023-12-11T08:07:27.313Z,-0.83
2023-12-11T08:10:06.570Z,-0.81
2023-12-11T08:12:35.151Z,-0.79
2023-12-11T08:15:05.886Z,-0.81
2023-12-11T08:17:34.477Z,-0.78
2023-12-11T08:20:03.259Z,-0.74
2023-12-11T08:22:31.405Z,-0.69
2023-12-11T08:24:59.959Z,-0.63
2023-12-11T08:27:28.235Z,-0.56
2023-12-11T08:29:57.607Z,-0.49
2023-12-11T08:32:26.209Z,-0.45
2023-12-11T08:34:54.418Z,-0.45
2023-12-11T08:37:25.536Z,-0.46
2023-12-11T08:39:54.007Z,-0.46
2023-12-11T08:42:23.528Z,-0.44
2023-12-11T08:44:51.810Z,-0.44
2023-12-11T08:47:19.917Z,-0.44
2023-12-11T08:49:54.205Z,-0.43
2023-12-11T08:52:23.091Z,-0.43
2023-12-11T08:54:51.984Z,-0.41
2023-12-11T08:57:20.180Z,-0.43
2023-12-11T08:59:48.768Z,-0.45
2023-12-11T09:02:17.206Z,-0.46
2023-12-11T09:04:45.646Z,-0.45
2023-12-11T09:07:13.926Z,-0.40
2023-12-11T09:09:42.259Z,-0.34
2023-12-11T09:12:19.392Z,-0.29
2023-12-11T09:14:56.406Z,-0.22
2023-12-11T09:17:24.736Z,-0.17
2023-12-11T09:19:55.775Z,-0.13
2023-12-11T09:22:25.297Z,-0.11
2023-12-11T09:24:53.582Z,-0.11
2023-12-11T09:27:22.965Z,-0.08
2023-12-11T09:29:51.120Z,-0.03
2023-12-11T09:32:19.416Z,-0.01
2023-12-11T09:34:47.951Z,-0.02
2023-12-11T09:37:20.939Z,-0.02
2023-12-11T09:39:49.110Z,-0.03
2023-12-11T09:42:17.174Z,-0.03
2023-12-11T09:44:45.777Z,0.01
2023-12-11T09:47:21.618Z,0.08
2023-12-11T09:49:50.034Z,0.09
2023-12-11T09:52:19.291Z,0.12
2023-12-11T09:54:48.442Z,0.10
2023-12-11T09:57:17.135Z,0.08
2023-12-11T09:59:45.584Z,0.06
2023-12-11T10:02:17.421Z,0.03
2023-12-11T10:05:02.044Z,-0.02
2023-12-11T10:07:31.374Z,-0.06
2023-12-11T10:10:00.694Z,-0.10
2023-12-11T10:12:39.984Z,-0.12
2023-12-11T10:15:08.497Z,-0.16
2023-12-11T10:17:36.725Z,-0.16
2023-12-11T10:20:16.576Z,-0.16
2023-12-11T10:22:45.045Z,-0.15
2023-12-11T10:25:14.125Z,-0.16
2023-12-11T10:27:42.741Z,-0.16
2023-12-11T10:30:15.881Z,-0.14
2023-12-11T10:32:44.225Z,-0.13
2023-12-11T10:35:23.948Z,-0.08
2023-12-11T10:37:52.433Z,-0.07
2023-12-11T10:40:22.050Z,-0.11
2023-12-11T10:42:58.661Z,-0.13
2023-12-11T10:45:26.912Z,-0.15
2023-12-11T10:47:55.289Z,-0.17
2023-12-11T10:50:23.557Z,-0.17
2023-12-11T10:52:51.762Z,-0.16
2023-12-11T10:55:20.350Z,-0.15
2023-12-11T10:57:48.741Z,-0.16
2023-12-11T11:00:17.345Z,-0.17
2023-12-11T11:02:46.251Z,-0.19
2023-12-11T11:05:14.541Z,-0.21
2023-12-11T11:07:52.085Z,-0.23
2023-12-11T11:10:24.378Z,-0.24
2023-12-11T11:13:11.745Z,-0.24
2023-12-11T11:15:40.327Z,-0.29
2023-12-11T11:18:11.380Z,-0.33
2023-12-11T11:20:40.529Z,-0.30
2023-12-11T11:23:14.970Z,-0.32
2023-12-11T11:25:43.581Z,-0.37
2023-12-11T11:28:32.400Z,-0.39
2023-12-11T11:31:01.904Z,-0.35
2023-12-11T11:33:51.092Z,-0.33
2023-12-11T11:36:20.024Z,-0.32
2023-12-11T11:38:58.450Z,-0.31
2023-12-11T11:41:27.905Z,-0.30
2023-12-11T11:44:23.959Z,-0.30
2023-12-11T11:46:52.788Z,-0.30
2023-12-11T11:49:28.659Z,-0.27
2023-12-11T11:51:57.193Z,-0.25
2023-12-11T11:54:26.033Z,-0.27
2023-12-11T11:56:54.564Z,-0.27
2023-12-11T11:59:22.825Z,-0.27
2023-12-11T12:01:51.190Z,-0.32
2023-12-11T12:04:27.599Z,-0.31
2023-12-11T12:06:57.230Z,-0.33
2023-12-11T12:09:26.113Z,-0.34
2023-12-11T12:11:54.551Z,-0.36
2023-12-11T12:14:23.397Z,-0.36
2023-12-11T12:16:51.586Z,-0.35
2023-12-11T12:19:32.933Z,-0.35
2023-12-11T12:22:03.417Z,-0.38
2023-12-11T12:24:31.930Z,-0.39
2023-12-11T12:27:00.457Z,-0.41
2023-12-11T12:29:29.546Z,-0.44
2023-12-11T12:31:58.750Z,-0.43
2023-12-11T12:34:27.350Z,-0.39
2023-12-11T12:36:55.703Z,-0.38
2023-12-11T12:39:23.869Z,-0.38
2023-12-11T12:41:54.768Z,-0.42
2023-12-11T12:44:23.843Z,-0.43
2023-12-11T12:46:52.300Z,-0.45
2023-12-11T12:49:21.963Z,-0.49
2023-12-11T12:51:51.898Z,-0.51
2023-12-11T12:54:20.452Z,-0.53
2023-12-11T12:56:56.993Z,-0.56
2023-12-11T12:59:25.792Z,-0.58
2023-12-11T13:01:54.231Z,-0.58
2023-12-11T13:04:24.347Z,-0.58
2023-12-11T13:06:52.735Z,-0.57
2023-12-11T13:09:30.855Z,-0.57
2023-12-11T13:11:59.489Z,-0.58
2023-12-11T13:14:28.268Z,-0.60
2023-12-11T13:16:56.954Z,-0.62
2023-12-11T13:19:28.571Z,-0.66
2023-12-11T13:21:57.758Z,-0.70
2023-12-11T13:24:26.262Z,-0.71
2023-12-11T13:26:54.438Z,-0.73
2023-12-11T13:29:22.745Z,-0.74
2023-12-11T13:31:51.245Z,-0.75
2023-12-11T13:34:20.163Z,-0.76
2023-12-11T13:36:48.842Z,-0.77
2023-12-11T13:39:18.433Z,-0.77
2023-12-11T13:41:46.871Z,-0.79
2023-12-11T13:44:15.190Z,-0.79
2023-12-11T13:46:43.454Z,-0.77
2023-12-11T13:49:11.902Z,-0.78
2023-12-11T13:51:40.150Z,-0.79
2023-12-11T13:54:09.071Z,-0.77
2023-12-11T13:56:37.115Z,-0.77
2023-12-11T13:59:06.222Z,-0.78
2023-12-11T14:01:34.389Z,-0.77
2023-12-11T14:04:02.632Z,-0.77
2023-12-11T14:06:30.995Z,-0.77
2023-12-11T14:08:59.383Z,-0.78
2023-12-11T14:11:29.474Z,-0.80
2023-12-11T14:13:57.693Z,-0.82
2023-12-11T14:16:26.154Z,-0.84
2023-12-11T14:18:54.657Z,-0.81
2023-12-11T14:21:23.604Z,-0.83
2023-12-11T14:23:51.980Z,-0.83
2023-12-11T14:26:21.160Z,-0.83
2023-12-11T14:28:49.464Z,-0.85
2023-12-11T14:31:17.850Z,-0.84
2023-12-11T14:33:46.299Z,-0.83
2023-12-11T14:36:19.308Z,-0.83
2023-12-11T14:38:51.397Z,-0.85
2023-12-11T14:41:19.468Z,-0.85
2023-12-11T14:43:47.655Z,-0.86
2023-12-11T14:46:16.193Z,-0.85
2023-12-11T14:48:46.886Z,-0.83
2023-12-11T14:51:15.209Z,-0.82
2023-12-11T14:53:43.500Z,-0.82
2023-12-11T14:56:12.822Z,-0.82
2023-12-11T15:01:09.987Z,-0.81
2023-12-11T15:03:38.462Z,-0.84
2023-12-11T15:06:07.100Z,-0.81
2023-12-11T15:08:35.572Z,-0.77
2023-12-11T15:11:04.117Z,-0.75
2023-12-11T15:13:32.402Z,-0.74
2023-12-11T15:16:01.859Z,-0.72
2023-12-11T15:18:30.318Z,-0.69
2023-12-11T15:20:58.702Z,-0.69
2023-12-11T15:23:26.968Z,-0.68
2023-12-11T15:25:55.264Z,-0.68
2023-12-11T15:28:23.602Z,-0.65
2023-12-11T15:30:51.930Z,-0.64
2023-12-11T15:33:20.448Z,-0.67
2023-12-11T15:35:48.714Z,-0.62
2023-12-11T15:38:16.875Z,-0.61
2023-12-11T15:40:45.192Z,-0.61
2023-12-11T15:43:13.548Z,-0.64
2023-12-11T15:45:41.997Z,-0.65
2023-12-11T15:48:23.377Z,-0.63
2023-12-11T15:50:53.331Z,-0.64
2023-12-11T15:53:21.556Z,-0.65
2023-12-11T15:55:49.884Z,-0.64
2023-12-11T15:58:18.598Z,-0.63
2023-12-11T16:00:46.997Z,-0.61
2023-12-11T16:03:15.545Z,-0.60
2023-12-11T16:05:44.924Z,-0.58
2023-12-11T16:08:13.054Z,-0.57
2023-12-11T16:10:41.348Z,-0.56
2023-12-11T16:13:09.583Z,-0.56
2023-12-11T16:15:38.990Z,-0.56
2023-12-11T16:18:07.325Z,-0.55
2023-12-11T16:20:35.728Z,-0.57
2023-12-11T16:23:03.917Z,-0.56
2023-12-11T16:25:33.114Z,-0.55
2023-12-11T16:28:01.297Z,-0.56
2023-12-11T16:30:30.144Z,-0.56
2023-12-11T16:32:58.645Z,-0.56
2023-12-11T16:35:27.312Z,-0.55
2023-12-11T16:37:57.271Z,-0.55
2023-12-11T16:40:26.766Z,-0.57
2023-12-11T16:42:55.245Z,-0.57
2023-12-11T16:45:23.702Z,-0.58
2023-12-11T16:47:55.495Z,-0.57
2023-12-11T16:50:25.085Z,-0.58
2023-12-11T16:52:53.597Z,-0.59
2023-12-11T16:55:21.774Z,-0.61
2023-12-11T16:57:50.661Z,-0.60
2023-12-11T17:00:19.939Z,-0.60
2023-12-11T17:02:48.274Z,-0.61
2023-12-11T17:05:16.861Z,-0.62
2023-12-11T17:07:45.427Z,-0.61
2023-12-11T17:10:16.692Z,-0.62
2023-12-11T17:12:45.102Z,-0.64
2023-12-11T17:15:13.224Z,-0.66
2023-12-11T17:17:41.895Z,-0.68
2023-12-11T17:20:11.177Z,-0.67
2023-12-11T17:22:39.736Z,-0.65
2023-12-11T17:25:08.854Z,-0.64
2023-12-11T17:27:37.001Z,-0.63
2023-12-11T17:30:05.384Z,-0.61
2023-12-11T17:32:36.857Z,-0.61
2023-12-11T17:35:06.660Z,-0.62
2023-12-11T17:37:35.173Z,-0.64
2023-12-11T17:40:03.995Z,-0.66
2023-12-11T17:42:33.241Z,-0.68
2023-12-11T17:45:02.266Z,-0.68
2023-12-11T17:47:30.645Z,-0.70
2023-12-11T17:49:59.374Z,-0.72
2023-12-11T17:52:27.974Z,-0.72
2023-12-11T17:54:56.188Z,-0.74
2023-12-11T17:57:24.935Z,-0.76
2023-12-11T17:59:54.269Z,-0.77
2023-12-11T18:02:22.544Z,-0.76
2023-12-11T18:04:51.064Z,-0.77
2023-12-11T18:07:24.113Z,-0.78
2023-12-11T18:09:52.510Z,-0.79
2023-12-11T18:12:20.698Z,-0.79
2023-12-11T18:14:49.023Z,-0.80
2023-12-11T18:17:18.049Z,-0.81
2023-12-11T18:19:46.568Z,-0.84
2023-12-11T18:22:14.907Z,-0.84
2023-12-11T18:24:43.320Z,-0.85
2023-12-11T18:27:11.463Z,-0.86
2023-12-11T18:29:39.746Z,-0.87
2023-12-11T18:32:08.419Z,-0.86
2023-12-11T18:34:43.502Z,-0.86
2023-12-11T18:37:20.209Z,-0.85
2023-12-11T18:39:48.396Z,-0.86
2023-12-11T18:42:16.825Z,-0.84
2023-12-11T18:44:45.195Z,-0.84
2023-12-11T18:47:13.467Z,-0.84
2023-12-11T18:49:43.739Z,-0.85
2023-12-11T18:52:13.734Z,-0.85
2023-12-11T18:54:42.095Z,-0.83
2023-12-11T18:57:10.650Z,-0.83
2023-12-11T18:59:39.469Z,-0.83
2023-12-11T19:02:09.392Z,-0.80
2023-12-11T19:04:37.955Z,-0.80
2023-12-11T19:07:06.493Z,-0.80
2023-12-11T19:09:34.849Z,-0.79
2023-12-11T19:12:03.614Z,-0.78
2023-12-11T19:14:31.751Z,-0.77
2023-12-11T19:17:00.104Z,-0.76
2023-12-11T19:19:28.616Z,-0.76
2023-12-11T19:21:57.005Z,-0.73
2023-12-11T19:24:26.871Z,-0.72
2023-12-11T19:26:55.109Z,-0.72
2023-12-11T19:29:23.273Z,-0.72
2023-12-11T19:31:51.610Z,-0.72
2023-12-11T19:34:20.080Z,-0.73
2023-12-11T19:36:49.084Z,-0.73
2023-12-11T19:39:17.526Z,-0.74
2023-12-11T19:41:45.809Z,-0.74
2023-12-11T19:44:14.117Z,-0.74
2023-12-11T19:46:45.730Z,-0.75
2023-12-11T19:49:14.458Z,-0.73
2023-12-11T19:51:45.843Z,-0.70
2023-12-11T19:54:14.087Z,-0.69
2023-12-11T19:56:44.501Z,-0.67
2023-12-11T19:59:13.045Z,-0.66
2023-12-11T20:01:41.638Z,-0.65
2023-12-11T20:04:10.863Z,-0.64
2023-12-11T20:06:40.577Z,-0.60
2023-12-11T20:09:09.103Z,-0.58
2023-12-11T20:11:37.408Z,-0.58
2023-12-11T20:14:05.569Z,-0.57
2023-12-11T20:16:33.770Z,-0.58
2023-12-11T20:19:07.464Z,-0.56
2023-12-11T20:21:37.015Z,-0.55
2023-12-11T20:24:05.604Z,-0.54
2023-12-11T20:26:34.083Z,-0.52
2023-12-11T20:29:02.135Z,-0.52
2023-12-11T20:31:30.281Z,-0.50
2023-12-11T20:33:58.881Z,-0.51
2023-12-11T20:36:29.671Z,-0.51
2023-12-11T20:38:58.555Z,-0.51
2023-12-11T20:41:27.917Z,-0.50
2023-12-11T20:44:05.125Z,-0.49
2023-12-11T20:46:33.744Z,-0.49
2023-12-11T20:49:02.125Z,-0.50
2023-12-11T20:51:30.463Z,-0.51
2023-12-11T20:53:59.417Z,-0.51
2023-12-11T20:56:30.100Z,-0.52
2023-12-11T20:59:00.701Z,-0.52
2023-12-11T21:01:29.777Z,-0.51
2023-12-11T21:03:59.101Z,-0.51
2023-12-11T21:06:28.165Z,-0.52
2023-12-11T21:08:56.585Z,-0.52
2023-12-11T21:11:25.335Z,-0.53
2023-12-11T21:13:53.581Z,-0.54
2023-12-11T21:16:21.767Z,-0.55
2023-12-11T21:18:51.140Z,-0.56
2023-12-11T21:21:20.257Z,-0.55
2023-12-11T21:23:49.530Z,-0.54
2023-12-11T21:26:18.460Z,-0.50
2023-12-11T21:28:47.036Z,-0.48
2023-12-11T21:31:23.303Z,-0.46
2023-12-11T21:33:55.124Z,-0.43
2023-12-11T21:36:24.311Z,-0.42
2023-12-11T21:38:52.725Z,-0.39
2023-12-11T21:41:20.869Z,-0.39
2023-12-11T21:43:49.613Z,-0.38
2023-12-11T21:46:18.134Z,-0.38
2023-12-11T21:48:46.736Z,-0.38
2023-12-11T21:51:18.859Z,-0.38
2023-12-11T21:53:47.056Z,-0.40
2023-12-11T21:56:15.210Z,-0.43
2023-12-11T21:58:43.724Z,-0.44
2023-12-11T22:01:11.982Z,-0.44
2023-12-11T22:03:40.183Z,-0.42
2023-12-11T22:06:08.757Z,-0.42
2023-12-11T22:08:36.910Z,-0.40
2023-12-11T22:11:05.786Z,-0.41
2023-12-11T22:13:34.216Z,-0.41
2023-12-11T22:16:02.442Z,-0.42
2023-12-11T22:18:30.884Z,-0.42
2023-12-11T22:20:59.004Z,-0.41
2023-12-11T22:23:27.346Z,-0.41
2023-12-11T22:25:55.640Z,-0.41
2023-12-11T22:28:23.861Z,-0.40
2023-12-11T22:30:52.004Z,-0.40
2023-12-11T22:33:20.208Z,-0.41
2023-12-11T22:35:48.598Z,-0.41
2023-12-11T22:38:16.909Z,-0.40
2023-12-11T22:40:45.280Z,-0.38
2023-12-11T22:43:13.620Z,-0.37
2023-12-11T22:45:42.592Z,-0.37
2023-12-11T22:48:10.905Z,-0.37
2023-12-11T22:50:39.335Z,-0.37
2023-12-11T22:53:07.420Z,-0.36
2023-12-11T22:55:35.746Z,-0.36
2023-12-11T22:58:13.610Z,-0.37
2023-12-11T23:00:44.823Z,-0.37
2023-12-11T23:03:13.093Z,-0.36
2023-12-11T23:05:41.219Z,-0.34
2023-12-11T23:08:09.365Z,-0.33
2023-12-11T23:10:37.575Z,-0.34
2023-12-11T23:13:05.831Z,-0.33
2023-12-11T23:15:33.942Z,-0.31
2023-12-11T23:18:02.307Z,-0.31
2023-12-11T23:20:30.606Z,-0.34
2023-12-11T23:22:58.976Z,-0.36
2023-12-11T23:25:27.436Z,-0.38
2023-12-11T23:27:55.676Z,-0.38
2023-12-11T23:30:24.066Z,-0.38
2023-12-11T23:32:52.227Z,-0.34
2023-12-11T23:35:20.407Z,-0.33
2023-12-11T23:37:48.776Z,-0.34
2023-12-11T23:40:16.953Z,-0.34
2023-12-11T23:42:45.263Z,-0.34
2023-12-11T23:45:13.361Z,-0.31
2023-12-11T23:47:41.457Z,-0.31
2023-12-11T23:50:09.960Z,-0.31
2023-12-11T23:52:38.560Z,-0.31
2023-12-11T23:55:07.055Z,-0.32
2023-12-11T23:57:35.220Z,-0.32
